sensor_id;sensor_type;location;lat;lon;timestamp;temperature;humidity
5352;DHT22;2698;51.454;6.736;2022-08-21T00:01:36;19.00;99.90
5352;DHT22;2698;51.454;6.736;2022-08-21T00:04:04;19.00;99.90
5352;DHT22;2698;51.454;6.736;2022-08-21T00:06:31;18.90;99.90
5352;DHT22;2698;51.454;6.736;2022-08-21T00:08:59;18.90;99.90
5352;DHT22;2698;51.454;6.736;2022-08-21T00:11:26;18.80;99.90
5352;DHT22;2698;51.454;6.736;2022-08-21T00:13:53;18.80;99.90
5352;DHT22;2698;51.454;6.736;2022-08-21T00:16:20;18.70;99.90
5352;DHT22;2698;51.454;6.736;2022-08-21T00:18:48;18.60;99.90
5352;DHT22;2698;51.454;6.736;2022-08-21T00:21:16;18.70;99.90
5352;DHT22;2698;51.454;6.736;2022-08-21T00:23:43;18.60;99.90
5352;DHT22;2698;51.454;6.736;2022-08-21T00:26:10;18.60;99.90
5352;DHT22;2698;51.454;6.736;2022-08-21T00:28:37;18.50;99.90
5352;DHT22;2698;51.454;6.736;2022-08-21T00:31:04;18.50;99.90
5352;DHT22;2698;51.454;6.736;2022-08-21T00:33:31;18.40;99.90
5352;DHT22;2698;51.454;6.736;2022-08-21T00:36:00;18.30;99.90
5352;DHT22;2698;51.454;6.736;2022-08-21T00:38:27;18.20;99.90
5352;DHT22;2698;51.454;6.736;2022-08-21T00:40:56;18.20;99.90
5352;DHT22;2698;51.454;6.736;2022-08-21T00:43:29;18.20;99.90
5352;DHT22;2698;51.454;6.736;2022-08-21T00:45:57;18.20;99.90
5352;DHT22;2698;51.454;6.736;2022-08-21T00:48:25;18.00;99.90
5352;DHT22;2698;51.454;6.736;2022-08-21T00:50:55;18.00;99.90
5352;DHT22;2698;51.454;6.736;2022-08-21T00:53:25;18.00;99.90
5352;DHT22;2698;51.454;6.736;2022-08-21T00:55:53;17.90;99.90
5352;DHT22;2698;51.454;6.736;2022-08-21T00:58:20;17.90;99.90
5352;DHT22;2698;51.454;6.736;2022-08-21T01:00:49;17.80;99.90
5352;DHT22;2698;51.454;6.736;2022-08-21T01:03:19;17.80;99.90
5352;DHT22;2698;51.454;6.736;2022-08-21T01:05:47;17.80;99.90
5352;DHT22;2698;51.454;6.736;2022-08-21T01:08:16;17.80;99.90
5352;DHT22;2698;51.454;6.736;2022-08-21T01:10:45;17.70;99.90
5352;DHT22;2698;51.454;6.736;2022-08-21T01:13:15;17.80;99.90
5352;DHT22;2698;51.454;6.736;2022-08-21T01:15:45;17.60;99.90
5352;DHT22;2698;51.454;6.736;2022-08-21T01:18:14;17.60;99.90
5352;DHT22;2698;51.454;6.736;2022-08-21T01:20:44;17.60;99.90
5352;DHT22;2698;51.454;6.736;2022-08-21T01:23:13;17.60;99.90
5352;DHT22;2698;51.454;6.736;2022-08-21T01:25:39;17.50;99.90
5352;DHT22;2698;51.454;6.736;2022-08-21T01:28:14;17.50;99.90
5352;DHT22;2698;51.454;6.736;2022-08-21T01:30:42;17.50;99.90
5352;DHT22;2698;51.454;6.736;2022-08-21T01:33:10;17.50;99.90
5352;DHT22;2698;51.454;6.736;2022-08-21T01:35:37;17.40;99.90
5352;DHT22;2698;51.454;6.736;2022-08-21T01:38:04;17.40;99.90
5352;DHT22;2698;51.454;6.736;2022-08-21T01:40:32;17.50;99.90
5352;DHT22;2698;51.454;6.736;2022-08-21T01:42:59;17.40;99.90
5352;DHT22;2698;51.454;6.736;2022-08-21T01:45:26;17.40;99.90
5352;DHT22;2698;51.454;6.736;2022-08-21T01:47:53;17.30;99.90
5352;DHT22;2698;51.454;6.736;2022-08-21T01:50:20;17.30;99.90
5352;DHT22;2698;51.454;6.736;2022-08-21T01:52:48;17.30;99.90
5352;DHT22;2698;51.454;6.736;2022-08-21T01:55:15;17.30;99.90
5352;DHT22;2698;51.454;6.736;2022-08-21T01:57:45;17.30;99.90
5352;DHT22;2698;51.454;6.736;2022-08-21T02:00:14;17.30;99.90
5352;DHT22;2698;51.454;6.736;2022-08-21T02:02:42;17.30;99.90
5352;DHT22;2698;51.454;6.736;2022-08-21T02:05:11;17.30;99.90
5352;DHT22;2698;51.454;6.736;2022-08-21T02:07:39;17.20;99.90
5352;DHT22;2698;51.454;6.736;2022-08-21T02:10:08;17.30;99.90
5352;DHT22;2698;51.454;6.736;2022-08-21T02:12:36;17.30;99.90
5352;DHT22;2698;51.454;6.736;2022-08-21T02:15:05;17.30;99.90
5352;DHT22;2698;51.454;6.736;2022-08-21T02:17:40;17.30;99.90
5352;DHT22;2698;51.454;6.736;2022-08-21T02:20:09;17.30;99.90
5352;DHT22;2698;51.454;6.736;2022-08-21T02:22:36;17.30;99.90
5352;DHT22;2698;51.454;6.736;2022-08-21T02:25:03;17.40;99.90
5352;DHT22;2698;51.454;6.736;2022-08-21T02:27:37;17.40;99.90
5352;DHT22;2698;51.454;6.736;2022-08-21T02:30:07;17.40;99.90
5352;DHT22;2698;51.454;6.736;2022-08-21T02:32:34;17.40;99.90
5352;DHT22;2698;51.454;6.736;2022-08-21T02:35:01;17.40;99.90
5352;DHT22;2698;51.454;6.736;2022-08-21T02:37:28;17.30;99.90
5352;DHT22;2698;51.454;6.736;2022-08-21T02:39:55;17.30;99.90
5352;DHT22;2698;51.454;6.736;2022-08-21T02:42:22;17.30;99.90
5352;DHT22;2698;51.454;6.736;2022-08-21T02:44:49;17.30;99.90
5352;DHT22;2698;51.454;6.736;2022-08-21T02:47:17;17.20;99.90
5352;DHT22;2698;51.454;6.736;2022-08-21T02:49:44;17.20;99.90
5352;DHT22;2698;51.454;6.736;2022-08-21T02:52:11;17.10;99.90
5352;DHT22;2698;51.454;6.736;2022-08-21T02:54:37;17.10;99.90
5352;DHT22;2698;51.454;6.736;2022-08-21T02:57:04;17.10;99.90
5352;DHT22;2698;51.454;6.736;2022-08-21T02:59:31;17.00;99.90
5352;DHT22;2698;51.454;6.736;2022-08-21T03:01:58;17.00;99.90
5352;DHT22;2698;51.454;6.736;2022-08-21T03:04:26;17.00;99.90
5352;DHT22;2698;51.454;6.736;2022-08-21T03:06:53;17.00;99.90
5352;DHT22;2698;51.454;6.736;2022-08-21T03:09:20;16.90;99.90
5352;DHT22;2698;51.454;6.736;2022-08-21T03:11:46;16.90;99.90
5352;DHT22;2698;51.454;6.736;2022-08-21T03:14:13;16.80;99.90
5352;DHT22;2698;51.454;6.736;2022-08-21T03:16:40;16.80;99.90
5352;DHT22;2698;51.454;6.736;2022-08-21T03:19:08;16.80;99.90
5352;DHT22;2698;51.454;6.736;2022-08-21T03:21:36;16.80;99.90
5352;DHT22;2698;51.454;6.736;2022-08-21T03:24:03;16.80;99.90
5352;DHT22;2698;51.454;6.736;2022-08-21T03:26:32;16.80;99.90
5352;DHT22;2698;51.454;6.736;2022-08-21T03:28:59;16.80;99.90
5352;DHT22;2698;51.454;6.736;2022-08-21T03:31:26;16.70;99.90
5352;DHT22;2698;51.454;6.736;2022-08-21T03:33:56;16.80;99.90
5352;DHT22;2698;51.454;6.736;2022-08-21T03:36:23;16.70;99.90
5352;DHT22;2698;51.454;6.736;2022-08-21T03:38:51;16.70;99.90
5352;DHT22;2698;51.454;6.736;2022-08-21T03:41:18;16.70;99.90
5352;DHT22;2698;51.454;6.736;2022-08-21T03:43:45;16.70;99.90
5352;DHT22;2698;51.454;6.736;2022-08-21T03:46:12;16.70;99.90
5352;DHT22;2698;51.454;6.736;2022-08-21T03:48:39;16.70;99.90
5352;DHT22;2698;51.454;6.736;2022-08-21T03:51:06;16.60;99.90
5352;DHT22;2698;51.454;6.736;2022-08-21T03:53:33;16.60;99.90
5352;DHT22;2698;51.454;6.736;2022-08-21T03:56:02;16.60;99.90
5352;DHT22;2698;51.454;6.736;2022-08-21T03:58:29;16.60;99.90
5352;DHT22;2698;51.454;6.736;2022-08-21T04:00:58;16.60;99.90
5352;DHT22;2698;51.454;6.736;2022-08-21T04:03:26;16.60;99.90
5352;DHT22;2698;51.454;6.736;2022-08-21T04:05:53;16.60;99.90
5352;DHT22;2698;51.454;6.736;2022-08-21T04:08:20;16.60;99.90
5352;DHT22;2698;51.454;6.736;2022-08-21T04:10:49;16.50;99.90
5352;DHT22;2698;51.454;6.736;2022-08-21T04:13:19;16.50;99.90
5352;DHT22;2698;51.454;6.736;2022-08-21T04:15:46;16.50;99.90
5352;DHT22;2698;51.454;6.736;2022-08-21T04:18:13;16.40;99.90
5352;DHT22;2698;51.454;6.736;2022-08-21T04:20:40;16.40;99.90
5352;DHT22;2698;51.454;6.736;2022-08-21T04:23:09;16.40;99.90
5352;DHT22;2698;51.454;6.736;2022-08-21T04:25:36;16.40;99.90
5352;DHT22;2698;51.454;6.736;2022-08-21T04:28:03;16.50;99.90
5352;DHT22;2698;51.454;6.736;2022-08-21T04:30:33;16.50;99.90
5352;DHT22;2698;51.454;6.736;2022-08-21T04:33:00;16.50;99.90
5352;DHT22;2698;51.454;6.736;2022-08-21T04:35:29;16.50;99.90
5352;DHT22;2698;51.454;6.736;2022-08-21T04:37:56;16.50;99.90
5352;DHT22;2698;51.454;6.736;2022-08-21T04:40:26;16.50;99.90
5352;DHT22;2698;51.454;6.736;2022-08-21T04:42:56;16.50;99.90
5352;DHT22;2698;51.454;6.736;2022-08-21T04:45:26;16.40;99.90
5352;DHT22;2698;51.454;6.736;2022-08-21T04:47:56;16.50;99.90
5352;DHT22;2698;51.454;6.736;2022-08-21T04:50:27;16.40;99.90
5352;DHT22;2698;51.454;6.736;2022-08-21T04:52:55;16.50;99.90
5352;DHT22;2698;51.454;6.736;2022-08-21T04:55:24;16.50;99.90
5352;DHT22;2698;51.454;6.736;2022-08-21T04:57:52;16.50;99.90
5352;DHT22;2698;51.454;6.736;2022-08-21T05:00:20;16.50;99.90
5352;DHT22;2698;51.454;6.736;2022-08-21T05:02:51;16.50;99.90
5352;DHT22;2698;51.454;6.736;2022-08-21T05:05:23;16.60;99.90
5352;DHT22;2698;51.454;6.736;2022-08-21T05:07:50;16.60;99.90
5352;DHT22;2698;51.454;6.736;2022-08-21T05:10:17;16.60;99.90
5352;DHT22;2698;51.454;6.736;2022-08-21T05:12:45;16.60;99.90
5352;DHT22;2698;51.454;6.736;2022-08-21T05:15:12;16.60;99.90
5352;DHT22;2698;51.454;6.736;2022-08-21T05:17:39;16.60;99.90
5352;DHT22;2698;51.454;6.736;2022-08-21T05:20:07;16.70;99.90
5352;DHT22;2698;51.454;6.736;2022-08-21T05:22:35;16.70;99.90
5352;DHT22;2698;51.454;6.736;2022-08-21T05:25:03;16.70;99.90
5352;DHT22;2698;51.454;6.736;2022-08-21T05:27:30;16.70;99.90
5352;DHT22;2698;51.454;6.736;2022-08-21T05:29:57;16.70;99.90
5352;DHT22;2698;51.454;6.736;2022-08-21T05:32:24;16.70;99.90
5352;DHT22;2698;51.454;6.736;2022-08-21T05:34:53;16.80;99.90
5352;DHT22;2698;51.454;6.736;2022-08-21T05:37:20;16.80;99.90
5352;DHT22;2698;51.454;6.736;2022-08-21T05:39:48;16.70;99.90
5352;DHT22;2698;51.454;6.736;2022-08-21T05:42:15;16.80;99.90
5352;DHT22;2698;51.454;6.736;2022-08-21T05:44:42;16.80;99.90
5352;DHT22;2698;51.454;6.736;2022-08-21T05:47:10;16.90;99.90
5352;DHT22;2698;51.454;6.736;2022-08-21T05:49:38;16.90;99.90
5352;DHT22;2698;51.454;6.736;2022-08-21T05:52:05;17.00;99.90
5352;DHT22;2698;51.454;6.736;2022-08-21T05:54:32;17.00;99.90
5352;DHT22;2698;51.454;6.736;2022-08-21T05:57:00;17.00;99.90
5352;DHT22;2698;51.454;6.736;2022-08-21T05:59:27;17.00;99.90
5352;DHT22;2698;51.454;6.736;2022-08-21T06:01:54;17.10;99.90
5352;DHT22;2698;51.454;6.736;2022-08-21T06:04:21;17.10;99.90
5352;DHT22;2698;51.454;6.736;2022-08-21T06:06:48;17.30;99.90
5352;DHT22;2698;51.454;6.736;2022-08-21T06:09:15;17.30;99.90
5352;DHT22;2698;51.454;6.736;2022-08-21T06:11:42;17.30;99.90
5352;DHT22;2698;51.454;6.736;2022-08-21T06:14:10;17.40;99.90
5352;DHT22;2698;51.454;6.736;2022-08-21T06:16:39;17.50;99.90
5352;DHT22;2698;51.454;6.736;2022-08-21T06:19:06;17.60;99.90
5352;DHT22;2698;51.454;6.736;2022-08-21T06:21:33;17.60;99.90
5352;DHT22;2698;51.454;6.736;2022-08-21T06:24:00;17.70;99.90
5352;DHT22;2698;51.454;6.736;2022-08-21T06:26:27;17.80;99.90
5352;DHT22;2698;51.454;6.736;2022-08-21T06:28:54;17.80;99.90
5352;DHT22;2698;51.454;6.736;2022-08-21T06:31:25;17.90;99.90
5352;DHT22;2698;51.454;6.736;2022-08-21T06:33:52;17.90;99.90
5352;DHT22;2698;51.454;6.736;2022-08-21T06:36:20;17.90;99.90
5352;DHT22;2698;51.454;6.736;2022-08-21T06:38:47;18.80;99.90
5352;DHT22;2698;51.454;6.736;2022-08-21T06:41:14;20.30;99.90
5352;DHT22;2698;51.454;6.736;2022-08-21T06:43:41;20.90;99.90
5352;DHT22;2698;51.454;6.736;2022-08-21T06:46:08;20.80;99.90
5352;DHT22;2698;51.454;6.736;2022-08-21T06:48:36;21.10;99.90
5352;DHT22;2698;51.454;6.736;2022-08-21T06:51:03;21.30;99.90
5352;DHT22;2698;51.454;6.736;2022-08-21T06:53:30;22.00;99.90
5352;DHT22;2698;51.454;6.736;2022-08-21T06:55:57;22.40;99.90
5352;DHT22;2698;51.454;6.736;2022-08-21T06:58:24;22.80;99.90
5352;DHT22;2698;51.454;6.736;2022-08-21T07:00:52;23.20;99.90
5352;DHT22;2698;51.454;6.736;2022-08-21T07:03:23;23.00;99.90
5352;DHT22;2698;51.454;6.736;2022-08-21T07:05:51;23.10;99.90
5352;DHT22;2698;51.454;6.736;2022-08-21T07:08:18;23.20;99.90
5352;DHT22;2698;51.454;6.736;2022-08-21T07:10:46;23.30;99.90
5352;DHT22;2698;51.454;6.736;2022-08-21T07:13:14;23.30;99.90
5352;DHT22;2698;51.454;6.736;2022-08-21T07:15:41;23.60;99.90
5352;DHT22;2698;51.454;6.736;2022-08-21T07:18:08;23.90;99.90
5352;DHT22;2698;51.454;6.736;2022-08-21T07:20:35;24.00;99.90
5352;DHT22;2698;51.454;6.736;2022-08-21T07:23:08;23.90;96.10
5352;DHT22;2698;51.454;6.736;2022-08-21T07:25:35;24.30;94.30
5352;DHT22;2698;51.454;6.736;2022-08-21T07:28:02;24.20;85.00
5352;DHT22;2698;51.454;6.736;2022-08-21T07:30:29;24.30;84.90
5352;DHT22;2698;51.454;6.736;2022-08-21T07:32:56;24.60;80.30
5352;DHT22;2698;51.454;6.736;2022-08-21T07:35:23;24.40;74.90
5352;DHT22;2698;51.454;6.736;2022-08-21T07:37:50;23.90;75.10
5352;DHT22;2698;51.454;6.736;2022-08-21T07:40:19;23.80;78.30
5352;DHT22;2698;51.454;6.736;2022-08-21T07:42:48;23.70;80.70
5352;DHT22;2698;51.454;6.736;2022-08-21T07:45:18;23.30;81.80
5352;DHT22;2698;51.454;6.736;2022-08-21T07:47:45;23.20;86.40
5352;DHT22;2698;51.454;6.736;2022-08-21T07:50:12;22.80;91.00
5352;DHT22;2698;51.454;6.736;2022-08-21T07:52:40;22.70;93.70
5352;DHT22;2698;51.454;6.736;2022-08-21T07:55:08;22.60;99.90
5352;DHT22;2698;51.454;6.736;2022-08-21T07:57:37;22.90;99.90
5352;DHT22;2698;51.454;6.736;2022-08-21T08:00:07;22.70;99.00
5352;DHT22;2698;51.454;6.736;2022-08-21T08:02:34;22.30;99.90
5352;DHT22;2698;51.454;6.736;2022-08-21T08:05:02;22.40;99.90
5352;DHT22;2698;51.454;6.736;2022-08-21T08:07:29;22.40;99.90
5352;DHT22;2698;51.454;6.736;2022-08-21T08:09:56;22.70;99.90
5352;DHT22;2698;51.454;6.736;2022-08-21T08:12:24;22.60;99.90
5352;DHT22;2698;51.454;6.736;2022-08-21T08:14:56;22.40;99.90
5352;DHT22;2698;51.454;6.736;2022-08-21T08:17:23;22.50;99.90
5352;DHT22;2698;51.454;6.736;2022-08-21T08:19:50;22.60;99.90
5352;DHT22;2698;51.454;6.736;2022-08-21T08:22:18;22.60;99.90
5352;DHT22;2698;51.454;6.736;2022-08-21T08:24:46;22.70;99.90
5352;DHT22;2698;51.454;6.736;2022-08-21T08:27:13;22.60;99.20
5352;DHT22;2698;51.454;6.736;2022-08-21T08:29:40;22.50;99.20
5352;DHT22;2698;51.454;6.736;2022-08-21T08:32:08;22.70;99.90
5352;DHT22;2698;51.454;6.736;2022-08-21T08:34:36;22.80;99.90
5352;DHT22;2698;51.454;6.736;2022-08-21T08:37:04;22.80;99.10
5352;DHT22;2698;51.454;6.736;2022-08-21T08:39:32;23.10;99.90
5352;DHT22;2698;51.454;6.736;2022-08-21T08:42:05;23.00;99.00
5352;DHT22;2698;51.454;6.736;2022-08-21T08:44:32;23.10;98.20
5352;DHT22;2698;51.454;6.736;2022-08-21T08:47:01;23.10;99.60
5352;DHT22;2698;51.454;6.736;2022-08-21T08:49:36;23.10;99.90
5352;DHT22;2698;51.454;6.736;2022-08-21T08:52:07;23.30;95.70
5352;DHT22;2698;51.454;6.736;2022-08-21T08:54:41;23.40;96.20
5352;DHT22;2698;51.454;6.736;2022-08-21T08:57:15;23.20;94.90
5352;DHT22;2698;51.454;6.736;2022-08-21T08:59:44;23.10;95.80
5352;DHT22;2698;51.454;6.736;2022-08-21T09:02:13;23.20;96.00
5352;DHT22;2698;51.454;6.736;2022-08-21T09:04:42;23.20;96.70
5352;DHT22;2698;51.454;6.736;2022-08-21T09:07:15;23.00;99.90
5352;DHT22;2698;51.454;6.736;2022-08-21T09:09:55;22.80;99.40
5352;DHT22;2698;51.454;6.736;2022-08-21T09:12:32;22.80;99.90
5352;DHT22;2698;51.454;6.736;2022-08-21T09:15:06;23.00;99.90
5352;DHT22;2698;51.454;6.736;2022-08-21T09:17:42;23.20;99.90
5352;DHT22;2698;51.454;6.736;2022-08-21T09:20:21;23.30;97.70
5352;DHT22;2698;51.454;6.736;2022-08-21T09:23:07;23.40;94.20
5352;DHT22;2698;51.454;6.736;2022-08-21T09:25:42;23.80;90.70
5352;DHT22;2698;51.454;6.736;2022-08-21T09:28:09;23.40;92.10
5352;DHT22;2698;51.454;6.736;2022-08-21T09:30:40;23.70;91.10
5352;DHT22;2698;51.454;6.736;2022-08-21T09:33:09;24.00;88.60
5352;DHT22;2698;51.454;6.736;2022-08-21T09:35:48;23.80;81.40
5352;DHT22;2698;51.454;6.736;2022-08-21T09:38:25;23.60;90.00
5352;DHT22;2698;51.454;6.736;2022-08-21T09:40:58;23.80;89.60
5352;DHT22;2698;51.454;6.736;2022-08-21T09:43:25;23.50;85.90
5352;DHT22;2698;51.454;6.736;2022-08-21T09:46:06;23.80;88.20
5352;DHT22;2698;51.454;6.736;2022-08-21T09:48:41;23.90;84.30
5352;DHT22;2698;51.454;6.736;2022-08-21T09:51:12;23.70;84.80
5352;DHT22;2698;51.454;6.736;2022-08-21T09:53:43;24.10;87.70
5352;DHT22;2698;51.454;6.736;2022-08-21T09:56:25;24.00;84.80
5352;DHT22;2698;51.454;6.736;2022-08-21T09:59:15;24.10;82.10
5352;DHT22;2698;51.454;6.736;2022-08-21T10:01:44;24.10;78.30
5352;DHT22;2698;51.454;6.736;2022-08-21T10:04:12;24.40;79.90
5352;DHT22;2698;51.454;6.736;2022-08-21T10:06:41;24.60;77.10
5352;DHT22;2698;51.454;6.736;2022-08-21T10:09:09;24.60;74.40
5352;DHT22;2698;51.454;6.736;2022-08-21T10:11:37;24.10;71.10
5352;DHT22;2698;51.454;6.736;2022-08-21T10:14:15;24.70;73.20
5352;DHT22;2698;51.454;6.736;2022-08-21T10:16:53;24.80;68.80
5352;DHT22;2698;51.454;6.736;2022-08-21T10:19:29;24.70;66.60
5352;DHT22;2698;51.454;6.736;2022-08-21T10:22:14;24.70;67.10
5352;DHT22;2698;51.454;6.736;2022-08-21T10:24:52;24.90;68.40
5352;DHT22;2698;51.454;6.736;2022-08-21T10:27:33;24.90;65.80
5352;DHT22;2698;51.454;6.736;2022-08-21T10:30:06;24.80;65.10
5352;DHT22;2698;51.454;6.736;2022-08-21T10:32:50;25.00;62.20
5352;DHT22;2698;51.454;6.736;2022-08-21T10:35:24;25.00;62.20
5352;DHT22;2698;51.454;6.736;2022-08-21T10:40:55;24.80;58.50
5352;DHT22;2698;51.454;6.736;2022-08-21T10:43:28;25.10;59.70
5352;DHT22;2698;51.454;6.736;2022-08-21T10:46:01;24.80;58.20
5352;DHT22;2698;51.454;6.736;2022-08-21T10:48:37;25.30;58.70
5352;DHT22;2698;51.454;6.736;2022-08-21T10:51:10;25.20;58.00
5352;DHT22;2698;51.454;6.736;2022-08-21T10:53:50;25.20;57.70
5352;DHT22;2698;51.454;6.736;2022-08-21T10:56:20;25.30;58.20
5352;DHT22;2698;51.454;6.736;2022-08-21T10:59:02;25.30;57.60
5352;DHT22;2698;51.454;6.736;2022-08-21T11:01:41;24.90;58.00
5352;DHT22;2698;51.454;6.736;2022-08-21T11:04:18;24.90;56.90
5352;DHT22;2698;51.454;6.736;2022-08-21T11:06:48;24.80;57.00
5352;DHT22;2698;51.454;6.736;2022-08-21T11:09:19;24.80;56.30
5352;DHT22;2698;51.454;6.736;2022-08-21T11:11:48;24.90;55.90
5352;DHT22;2698;51.454;6.736;2022-08-21T11:14:21;24.60;55.40
5352;DHT22;2698;51.454;6.736;2022-08-21T11:16:58;25.20;54.30
5352;DHT22;2698;51.454;6.736;2022-08-21T11:19:31;25.10;54.00
5352;DHT22;2698;51.454;6.736;2022-08-21T11:22:06;25.30;52.80
5352;DHT22;2698;51.454;6.736;2022-08-21T11:24:42;25.20;53.70
5352;DHT22;2698;51.454;6.736;2022-08-21T11:27:18;25.90;52.80
5352;DHT22;2698;51.454;6.736;2022-08-21T11:29:50;25.70;49.00
5352;DHT22;2698;51.454;6.736;2022-08-21T11:32:36;25.70;50.40
5352;DHT22;2698;51.454;6.736;2022-08-21T11:35:13;26.10;51.20
5352;DHT22;2698;51.454;6.736;2022-08-21T11:37:51;26.40;50.50
5352;DHT22;2698;51.454;6.736;2022-08-21T11:40:37;25.90;48.10
5352;DHT22;2698;51.454;6.736;2022-08-21T11:43:10;26.10;48.60
5352;DHT22;2698;51.454;6.736;2022-08-21T11:45:45;26.20;48.10
5352;DHT22;2698;51.454;6.736;2022-08-21T11:48:24;26.60;48.30
5352;DHT22;2698;51.454;6.736;2022-08-21T11:50:56;26.20;47.90
5352;DHT22;2698;51.454;6.736;2022-08-21T11:53:29;26.10;48.60
5352;DHT22;2698;51.454;6.736;2022-08-21T11:56:01;26.00;47.10
5352;DHT22;2698;51.454;6.736;2022-08-21T11:58:32;25.90;47.90
5352;DHT22;2698;51.454;6.736;2022-08-21T12:01:06;25.70;46.50
5352;DHT22;2698;51.454;6.736;2022-08-21T12:03:36;25.90;48.50
5352;DHT22;2698;51.454;6.736;2022-08-21T12:06:06;26.10;46.70
5352;DHT22;2698;51.454;6.736;2022-08-21T12:08:35;26.40;46.00
5352;DHT22;2698;51.454;6.736;2022-08-21T12:11:08;26.60;46.40
5352;DHT22;2698;51.454;6.736;2022-08-21T12:13:36;26.30;44.60
5352;DHT22;2698;51.454;6.736;2022-08-21T12:16:08;25.50;44.70
5352;DHT22;2698;51.454;6.736;2022-08-21T12:18:36;25.50;45.90
5352;DHT22;2698;51.454;6.736;2022-08-21T12:21:20;25.90;44.80
5352;DHT22;2698;51.454;6.736;2022-08-21T12:23:49;26.10;45.10
5352;DHT22;2698;51.454;6.736;2022-08-21T12:26:29;25.90;44.90
5352;DHT22;2698;51.454;6.736;2022-08-21T12:29:05;26.40;45.20
5352;DHT22;2698;51.454;6.736;2022-08-21T12:31:33;26.60;43.80
5352;DHT22;2698;51.454;6.736;2022-08-21T12:34:02;26.10;42.70
5352;DHT22;2698;51.454;6.736;2022-08-21T12:36:41;25.90;44.10
5352;DHT22;2698;51.454;6.736;2022-08-21T12:39:13;26.50;45.40
5352;DHT22;2698;51.454;6.736;2022-08-21T12:41:46;26.70;45.00
5352;DHT22;2698;51.454;6.736;2022-08-21T12:44:17;26.40;44.90
5352;DHT22;2698;51.454;6.736;2022-08-21T12:46:50;26.60;45.30
5352;DHT22;2698;51.454;6.736;2022-08-21T12:49:23;26.50;42.70
5352;DHT22;2698;51.454;6.736;2022-08-21T12:51:55;26.60;40.90
5352;DHT22;2698;51.454;6.736;2022-08-21T12:54:25;26.90;40.70
5352;DHT22;2698;51.454;6.736;2022-08-21T12:56:59;26.70;40.00
5352;DHT22;2698;51.454;6.736;2022-08-21T12:59:27;26.50;40.00
5352;DHT22;2698;51.454;6.736;2022-08-21T13:01:55;26.30;39.70
5352;DHT22;2698;51.454;6.736;2022-08-21T13:04:27;26.40;39.70
5352;DHT22;2698;51.454;6.736;2022-08-21T13:06:58;26.50;39.80
5352;DHT22;2698;51.454;6.736;2022-08-21T13:09:27;26.70;40.40
5352;DHT22;2698;51.454;6.736;2022-08-21T13:11:55;26.60;39.80
5352;DHT22;2698;51.454;6.736;2022-08-21T13:14:27;26.80;39.70
5352;DHT22;2698;51.454;6.736;2022-08-21T13:16:55;26.90;39.70
5352;DHT22;2698;51.454;6.736;2022-08-21T13:19:24;26.70;39.90
5352;DHT22;2698;51.454;6.736;2022-08-21T13:21:51;26.50;39.50
5352;DHT22;2698;51.454;6.736;2022-08-21T13:24:22;26.60;41.00
5352;DHT22;2698;51.454;6.736;2022-08-21T13:26:51;26.70;40.10
5352;DHT22;2698;51.454;6.736;2022-08-21T13:29:20;26.80;40.30
5352;DHT22;2698;51.454;6.736;2022-08-21T13:31:53;26.80;39.70
5352;DHT22;2698;51.454;6.736;2022-08-21T13:34:24;26.70;39.10
5352;DHT22;2698;51.454;6.736;2022-08-21T13:36:54;26.80;40.00
5352;DHT22;2698;51.454;6.736;2022-08-21T13:39:22;26.90;39.30
5352;DHT22;2698;51.454;6.736;2022-08-21T13:41:52;27.20;39.30
5352;DHT22;2698;51.454;6.736;2022-08-21T13:44:23;27.10;39.20
5352;DHT22;2698;51.454;6.736;2022-08-21T13:46:54;27.10;39.40
5352;DHT22;2698;51.454;6.736;2022-08-21T13:49:26;27.30;39.40
5352;DHT22;2698;51.454;6.736;2022-08-21T13:51:54;26.90;40.00
5352;DHT22;2698;51.454;6.736;2022-08-21T13:54:24;26.90;40.10
5352;DHT22;2698;51.454;6.736;2022-08-21T13:56:52;26.30;39.30
5352;DHT22;2698;51.454;6.736;2022-08-21T13:59:27;26.30;40.00
5352;DHT22;2698;51.454;6.736;2022-08-21T14:01:58;26.30;40.50
5352;DHT22;2698;51.454;6.736;2022-08-21T14:04:31;26.20;40.20
5352;DHT22;2698;51.454;6.736;2022-08-21T14:06:59;26.30;39.90
5352;DHT22;2698;51.454;6.736;2022-08-21T14:09:30;26.20;40.50
5352;DHT22;2698;51.454;6.736;2022-08-21T14:11:59;26.10;40.40
5352;DHT22;2698;51.454;6.736;2022-08-21T14:14:28;25.90;39.70
5352;DHT22;2698;51.454;6.736;2022-08-21T14:17:00;26.10;40.70
5352;DHT22;2698;51.454;6.736;2022-08-21T14:19:35;26.10;40.90
5352;DHT22;2698;51.454;6.736;2022-08-21T14:22:22;26.30;40.70
5352;DHT22;2698;51.454;6.736;2022-08-21T14:24:50;26.20;40.70
5352;DHT22;2698;51.454;6.736;2022-08-21T14:27:25;26.10;40.00
5352;DHT22;2698;51.454;6.736;2022-08-21T14:29:59;26.30;40.70
5352;DHT22;2698;51.454;6.736;2022-08-21T14:32:29;26.50;40.10
5352;DHT22;2698;51.454;6.736;2022-08-21T14:35:00;26.60;39.40
5352;DHT22;2698;51.454;6.736;2022-08-21T14:37:27;26.50;39.70
5352;DHT22;2698;51.454;6.736;2022-08-21T14:39:54;26.90;39.30
5352;DHT22;2698;51.454;6.736;2022-08-21T14:42:21;27.00;38.20
5352;DHT22;2698;51.454;6.736;2022-08-21T14:44:49;27.00;38.80
5352;DHT22;2698;51.454;6.736;2022-08-21T14:47:16;27.00;38.70
5352;DHT22;2698;51.454;6.736;2022-08-21T14:49:44;26.60;39.00
5352;DHT22;2698;51.454;6.736;2022-08-21T14:52:11;26.60;38.70
5352;DHT22;2698;51.454;6.736;2022-08-21T14:54:38;26.50;39.00
5352;DHT22;2698;51.454;6.736;2022-08-21T14:57:07;26.30;38.60
5352;DHT22;2698;51.454;6.736;2022-08-21T14:59:36;26.40;39.10
5352;DHT22;2698;51.454;6.736;2022-08-21T15:02:04;26.10;38.50
5352;DHT22;2698;51.454;6.736;2022-08-21T15:04:32;25.90;38.40
5352;DHT22;2698;51.454;6.736;2022-08-21T15:07:00;26.20;38.60
5352;DHT22;2698;51.454;6.736;2022-08-21T15:09:27;25.90;38.70
5352;DHT22;2698;51.454;6.736;2022-08-21T15:11:57;25.90;37.60
5352;DHT22;2698;51.454;6.736;2022-08-21T15:14:27;25.90;38.50
5352;DHT22;2698;51.454;6.736;2022-08-21T15:16:54;25.90;39.00
5352;DHT22;2698;51.454;6.736;2022-08-21T15:19:21;26.00;40.30
5352;DHT22;2698;51.454;6.736;2022-08-21T15:21:48;25.90;39.50
5352;DHT22;2698;51.454;6.736;2022-08-21T15:24:16;25.90;40.00
5352;DHT22;2698;51.454;6.736;2022-08-21T15:26:43;25.60;39.30
5352;DHT22;2698;51.454;6.736;2022-08-21T15:29:11;25.70;39.20
5352;DHT22;2698;51.454;6.736;2022-08-21T15:31:50;25.50;38.80
5352;DHT22;2698;51.454;6.736;2022-08-21T15:34:18;25.10;38.90
5352;DHT22;2698;51.454;6.736;2022-08-21T15:36:44;25.30;39.40
5352;DHT22;2698;51.454;6.736;2022-08-21T15:39:11;25.50;39.80
5352;DHT22;2698;51.454;6.736;2022-08-21T15:41:40;25.70;38.20
5352;DHT22;2698;51.454;6.736;2022-08-21T15:44:09;25.80;36.70
5352;DHT22;2698;51.454;6.736;2022-08-21T15:46:40;25.70;35.90
5352;DHT22;2698;51.454;6.736;2022-08-21T15:49:08;25.90;35.90
5352;DHT22;2698;51.454;6.736;2022-08-21T15:51:35;25.60;36.10
5352;DHT22;2698;51.454;6.736;2022-08-21T15:54:02;25.80;36.70
5352;DHT22;2698;51.454;6.736;2022-08-21T15:56:35;25.70;36.70
5352;DHT22;2698;51.454;6.736;2022-08-21T15:59:06;25.40;36.40
5352;DHT22;2698;51.454;6.736;2022-08-21T16:01:35;25.40;36.90
5352;DHT22;2698;51.454;6.736;2022-08-21T16:04:03;25.50;37.10
5352;DHT22;2698;51.454;6.736;2022-08-21T16:06:30;25.50;36.50
5352;DHT22;2698;51.454;6.736;2022-08-21T16:08:58;25.30;35.90
5352;DHT22;2698;51.454;6.736;2022-08-21T16:11:25;25.40;36.50
5352;DHT22;2698;51.454;6.736;2022-08-21T16:13:52;25.30;36.40
5352;DHT22;2698;51.454;6.736;2022-08-21T16:16:22;25.40;36.80
5352;DHT22;2698;51.454;6.736;2022-08-21T16:18:50;25.50;36.40
5352;DHT22;2698;51.454;6.736;2022-08-21T16:21:17;25.20;36.00